sensor_id;sensor_type;location;lat;lon;timestamp;temperature;humidity
10231;DHT22;62604;49.432;8.680;2023-01-29T00:01:35;0.90;81.50
10231;DHT22;62604;49.432;8.680;2023-01-29T00:04:03;0.90;81.50
10231;DHT22;62604;49.432;8.680;2023-01-29T00:06:31;0.90;81.80
10231;DHT22;62604;49.432;8.680;2023-01-29T00:08:58;0.90;82.10
10231;DHT22;62604;49.432;8.680;2023-01-29T00:11:25;0.90;81.80
10231;DHT22;62604;49.432;8.680;2023-01-29T00:13:52;0.90;82.00
10231;DHT22;62604;49.432;8.680;2023-01-29T00:16:20;0.80;81.80
10231;DHT22;62604;49.432;8.680;2023-01-29T00:18:47;0.80;80.80
10231;DHT22;62604;49.432;8.680;2023-01-29T00:21:15;0.80;80.20
10231;DHT22;62604;49.432;8.680;2023-01-29T00:23:45;0.80;80.00
10231;DHT22;62604;49.432;8.680;2023-01-29T00:26:12;0.80;80.00
10231;DHT22;62604;49.432;8.680;2023-01-29T00:28:39;0.80;80.40
10231;DHT22;62604;49.432;8.680;2023-01-29T00:31:07;0.80;80.80
10231;DHT22;62604;49.432;8.680;2023-01-29T00:33:34;0.80;80.80
10231;DHT22;62604;49.432;8.680;2023-01-29T00:36:03;0.80;81.10
10231;DHT22;62604;49.432;8.680;2023-01-29T00:38:30;0.80;81.20
10231;DHT22;62604;49.432;8.680;2023-01-29T00:41:04;0.70;81.10
10231;DHT22;62604;49.432;8.680;2023-01-29T00:43:48;0.70;80.90
10231;DHT22;62604;49.432;8.680;2023-01-29T00:46:47;0.70;80.60
10231;DHT22;62604;49.432;8.680;2023-01-29T00:49:14;0.70;81.50
10231;DHT22;62604;49.432;8.680;2023-01-29T00:51:42;0.70;82.50
10231;DHT22;62604;49.432;8.680;2023-01-29T00:54:09;0.60;81.00
10231;DHT22;62604;49.432;8.680;2023-01-29T00:56:38;0.70;80.90
10231;DHT22;62604;49.432;8.680;2023-01-29T00:59:04;0.70;80.80
10231;DHT22;62604;49.432;8.680;2023-01-29T01:01:31;0.70;80.10
10231;DHT22;62604;49.432;8.680;2023-01-29T01:04:15;0.70;80.60
10231;DHT22;62604;49.432;8.680;2023-01-29T01:06:42;0.70;81.30
10231;DHT22;62604;49.432;8.680;2023-01-29T01:09:09;0.60;81.10
10231;DHT22;62604;49.432;8.680;2023-01-29T01:11:55;0.60;80.90
10231;DHT22;62604;49.432;8.680;2023-01-29T01:14:22;0.60;80.30
10231;DHT22;62604;49.432;8.680;2023-01-29T01:16:49;0.60;80.60
10231;DHT22;62604;49.432;8.680;2023-01-29T01:19:16;0.60;80.60
10231;DHT22;62604;49.432;8.680;2023-01-29T01:21:43;0.60;80.60
10231;DHT22;62604;49.432;8.680;2023-01-29T01:24:12;0.70;80.60
10231;DHT22;62604;49.432;8.680;2023-01-29T01:26:39;0.60;80.90
10231;DHT22;62604;49.432;8.680;2023-01-29T01:29:08;0.70;80.60
10231;DHT22;62604;49.432;8.680;2023-01-29T01:31:35;0.70;80.30
10231;DHT22;62604;49.432;8.680;2023-01-29T01:34:02;0.70;80.50
10231;DHT22;62604;49.432;8.680;2023-01-29T01:36:29;0.70;80.50
10231;DHT22;62604;49.432;8.680;2023-01-29T01:38:58;0.80;80.30
10231;DHT22;62604;49.432;8.680;2023-01-29T01:41:25;0.80;80.20
10231;DHT22;62604;49.432;8.680;2023-01-29T01:43:54;0.80;80.80
10231;DHT22;62604;49.432;8.680;2023-01-29T01:46:23;0.80;80.10
10231;DHT22;62604;49.432;8.680;2023-01-29T01:48:53;0.70;80.10
10231;DHT22;62604;49.432;8.680;2023-01-29T01:51:23;0.80;80.40
10231;DHT22;62604;49.432;8.680;2023-01-29T01:53:53;0.70;80.50
10231;DHT22;62604;49.432;8.680;2023-01-29T01:56:25;0.70;80.60
10231;DHT22;62604;49.432;8.680;2023-01-29T01:58:54;0.70;80.60
10231;DHT22;62604;49.432;8.680;2023-01-29T02:01:24;0.60;80.60
10231;DHT22;62604;49.432;8.680;2023-01-29T02:03:56;0.60;80.00
10231;DHT22;62604;49.432;8.680;2023-01-29T02:06:42;0.50;79.70
10231;DHT22;62604;49.432;8.680;2023-01-29T02:09:30;0.50;79.70
10231;DHT22;62604;49.432;8.680;2023-01-29T02:12:00;0.60;79.70
10231;DHT22;62604;49.432;8.680;2023-01-29T02:14:27;0.60;79.70
10231;DHT22;62604;49.432;8.680;2023-01-29T02:16:56;0.50;79.40
10231;DHT22;62604;49.432;8.680;2023-01-29T02:19:35;0.50;79.60
10231;DHT22;62604;49.432;8.680;2023-01-29T02:22:23;0.50;79.70
10231;DHT22;62604;49.432;8.680;2023-01-29T02:25:15;0.60;79.20
10231;DHT22;62604;49.432;8.680;2023-01-29T02:28:18;0.60;79.30
10231;DHT22;62604;49.432;8.680;2023-01-29T02:30:52;0.70;79.40
10231;DHT22;62604;49.432;8.680;2023-01-29T02:33:30;0.70;79.50
10231;DHT22;62604;49.432;8.680;2023-01-29T02:36:08;0.70;79.70
10231;DHT22;62604;49.432;8.680;2023-01-29T02:38:42;0.70;79.10
10231;DHT22;62604;49.432;8.680;2023-01-29T02:41:14;0.70;78.80
10231;DHT22;62604;49.432;8.680;2023-01-29T02:43:46;0.70;78.80
10231;DHT22;62604;49.432;8.680;2023-01-29T02:46:17;0.60;79.50
10231;DHT22;62604;49.432;8.680;2023-01-29T02:48:53;0.60;79.50
10231;DHT22;62604;49.432;8.680;2023-01-29T02:51:25;0.50;79.80
10231;DHT22;62604;49.432;8.680;2023-01-29T02:54:00;0.50;80.10
10231;DHT22;62604;49.432;8.680;2023-01-29T02:56:33;0.60;80.50
10231;DHT22;62604;49.432;8.680;2023-01-29T02:59:06;0.60;80.50
10231;DHT22;62604;49.432;8.680;2023-01-29T03:01:37;0.60;80.40
10231;DHT22;62604;49.432;8.680;2023-01-29T03:04:09;0.60;80.90
10231;DHT22;62604;49.432;8.680;2023-01-29T03:06:40;0.50;80.50
10231;DHT22;62604;49.432;8.680;2023-01-29T03:09:10;0.50;80.40
10231;DHT22;62604;49.432;8.680;2023-01-29T03:11:41;0.50;80.60
10231;DHT22;62604;49.432;8.680;2023-01-29T03:14:14;0.50;81.10
10231;DHT22;62604;49.432;8.680;2023-01-29T03:16:46;0.50;81.80
10231;DHT22;62604;49.432;8.680;2023-01-29T03:19:17;0.50;82.60
10231;DHT22;62604;49.432;8.680;2023-01-29T03:21:47;0.50;82.50
10231;DHT22;62604;49.432;8.680;2023-01-29T03:24:24;0.50;82.90
10231;DHT22;62604;49.432;8.680;2023-01-29T03:27:11;0.50;83.30
10231;DHT22;62604;49.432;8.680;2023-01-29T03:29:58;0.50;83.70
10231;DHT22;62604;49.432;8.680;2023-01-29T03:32:44;0.50;84.00
10231;DHT22;62604;49.432;8.680;2023-01-29T03:35:13;0.50;84.40
10231;DHT22;62604;49.432;8.680;2023-01-29T03:37:47;0.50;85.30
10231;DHT22;62604;49.432;8.680;2023-01-29T03:40:15;0.50;84.60
10231;DHT22;62604;49.432;8.680;2023-01-29T03:42:52;0.50;84.50
10231;DHT22;62604;49.432;8.680;2023-01-29T03:45:30;0.50;85.00
10231;DHT22;62604;49.432;8.680;2023-01-29T03:48:04;0.50;85.50
10231;DHT22;62604;49.432;8.680;2023-01-29T03:50:37;0.40;86.10
10231;DHT22;62604;49.432;8.680;2023-01-29T03:53:12;0.40;86.10
10231;DHT22;62604;49.432;8.680;2023-01-29T03:55:48;0.50;86.50
10231;DHT22;62604;49.432;8.680;2023-01-29T03:58:25;0.50;86.40
10231;DHT22;62604;49.432;8.680;2023-01-29T04:00:59;0.40;86.40
10231;DHT22;62604;49.432;8.680;2023-01-29T04:03:32;0.50;86.70
10231;DHT22;62604;49.432;8.680;2023-01-29T04:06:05;0.50;86.80
10231;DHT22;62604;49.432;8.680;2023-01-29T04:08:40;0.40;86.50
10231;DHT22;62604;49.432;8.680;2023-01-29T04:11:13;0.40;86.40
10231;DHT22;62604;49.432;8.680;2023-01-29T04:13:40;0.40;86.30
10231;DHT22;62604;49.432;8.680;2023-01-29T04:16:13;0.40;86.30
10231;DHT22;62604;49.432;8.680;2023-01-29T04:18:44;0.40;86.30
10231;DHT22;62604;49.432;8.680;2023-01-29T04:21:11;0.40;86.60
10231;DHT22;62604;49.432;8.680;2023-01-29T04:23:38;0.40;87.10
10231;DHT22;62604;49.432;8.680;2023-01-29T04:26:20;0.40;87.60
10231;DHT22;62604;49.432;8.680;2023-01-29T04:28:59;0.30;87.10
10231;DHT22;62604;49.432;8.680;2023-01-29T04:31:38;0.20;87.10
10231;DHT22;62604;49.432;8.680;2023-01-29T04:34:15;0.20;87.40
10231;DHT22;62604;49.432;8.680;2023-01-29T04:36:49;0.20;87.50
10231;DHT22;62604;49.432;8.680;2023-01-29T04:39:24;0.10;86.70
10231;DHT22;62604;49.432;8.680;2023-01-29T04:41:54;0.20;86.80
10231;DHT22;62604;49.432;8.680;2023-01-29T04:44:32;0.20;86.90
10231;DHT22;62604;49.432;8.680;2023-01-29T04:47:07;0.10;86.70
10231;DHT22;62604;49.432;8.680;2023-01-29T04:49:44;0.10;85.70
10231;DHT22;62604;49.432;8.680;2023-01-29T04:52:18;0.20;85.80
10231;DHT22;62604;49.432;8.680;2023-01-29T04:54:53;0.10;85.20
10231;DHT22;62604;49.432;8.680;2023-01-29T04:57:25;0.10;85.20
10231;DHT22;62604;49.432;8.680;2023-01-29T04:59:58;0.10;84.80
10231;DHT22;62604;49.432;8.680;2023-01-29T05:02:28;0.10;85.70
10231;DHT22;62604;49.432;8.680;2023-01-29T05:04:57;0.30;85.70
10231;DHT22;62604;49.432;8.680;2023-01-29T05:07:26;0.10;86.00
10231;DHT22;62604;49.432;8.680;2023-01-29T05:09:55;0.20;86.60
10231;DHT22;62604;49.432;8.680;2023-01-29T05:12:24;0.10;86.40
10231;DHT22;62604;49.432;8.680;2023-01-29T05:14:53;0.00;86.00
10231;DHT22;62604;49.432;8.680;2023-01-29T05:17:22;0.00;85.70
10231;DHT22;62604;49.432;8.680;2023-01-29T05:19:51;0.10;85.80
10231;DHT22;62604;49.432;8.680;2023-01-29T05:22:18;0.10;85.60
10231;DHT22;62604;49.432;8.680;2023-01-29T05:24:47;0.00;85.40
10231;DHT22;62604;49.432;8.680;2023-01-29T05:27:17;0.00;86.00
10231;DHT22;62604;49.432;8.680;2023-01-29T05:30:01;0.00;85.40
10231;DHT22;62604;49.432;8.680;2023-01-29T05:32:28;0.00;85.50
10231;DHT22;62604;49.432;8.680;2023-01-29T05:34:56;0.00;85.50
10231;DHT22;62604;49.432;8.680;2023-01-29T05:37:23;0.00;85.60
10231;DHT22;62604;49.432;8.680;2023-01-29T05:39:50;0.10;85.80
10231;DHT22;62604;49.432;8.680;2023-01-29T05:42:17;0.10;86.00
10231;DHT22;62604;49.432;8.680;2023-01-29T05:44:44;0.10;86.30
10231;DHT22;62604;49.432;8.680;2023-01-29T05:47:11;0.10;86.70
10231;DHT22;62604;49.432;8.680;2023-01-29T05:49:37;0.10;86.70
10231;DHT22;62604;49.432;8.680;2023-01-29T05:52:06;0.20;87.50
10231;DHT22;62604;49.432;8.680;2023-01-29T05:54:33;0.20;87.40
10231;DHT22;62604;49.432;8.680;2023-01-29T05:56:59;0.20;87.10
10231;DHT22;62604;49.432;8.680;2023-01-29T05:59:26;0.20;87.10
10231;DHT22;62604;49.432;8.680;2023-01-29T06:01:55;0.20;87.80
10231;DHT22;62604;49.432;8.680;2023-01-29T06:04:22;0.30;86.90
10231;DHT22;62604;49.432;8.680;2023-01-29T06:06:49;0.30;86.80
10231;DHT22;62604;49.432;8.680;2023-01-29T06:09:18;0.20;87.30
10231;DHT22;62604;49.432;8.680;2023-01-29T06:11:44;0.20;88.00
10231;DHT22;62604;49.432;8.680;2023-01-29T06:14:11;0.20;88.10
10231;DHT22;62604;49.432;8.680;2023-01-29T06:16:38;0.10;87.80
10231;DHT22;62604;49.432;8.680;2023-01-29T06:19:05;0.10;89.00
10231;DHT22;62604;49.432;8.680;2023-01-29T06:21:32;0.20;88.80
10231;DHT22;62604;49.432;8.680;2023-01-29T06:23:59;0.20;88.90
10231;DHT22;62604;49.432;8.680;2023-01-29T06:26:27;0.20;88.30
10231;DHT22;62604;49.432;8.680;2023-01-29T06:28:54;0.20;89.90
10231;DHT22;62604;49.432;8.680;2023-01-29T06:31:21;0.20;89.20
10231;DHT22;62604;49.432;8.680;2023-01-29T06:33:48;0.20;90.10
10231;DHT22;62604;49.432;8.680;2023-01-29T06:36:15;0.20;90.40
10231;DHT22;62604;49.432;8.680;2023-01-29T06:38:42;0.20;90.30
10231;DHT22;62604;49.432;8.680;2023-01-29T06:41:10;0.20;90.20
10231;DHT22;62604;49.432;8.680;2023-01-29T06:43:38;0.20;90.10
10231;DHT22;62604;49.432;8.680;2023-01-29T06:46:06;0.20;89.60
10231;DHT22;62604;49.432;8.680;2023-01-29T06:48:34;0.20;89.70
10231;DHT22;62604;49.432;8.680;2023-01-29T06:51:02;0.20;90.10
10231;DHT22;62604;49.432;8.680;2023-01-29T06:53:30;0.20;90.30
10231;DHT22;62604;49.432;8.680;2023-01-29T06:55:57;0.20;90.70
10231;DHT22;62604;49.432;8.680;2023-01-29T06:58:24;0.20;90.80
10231;DHT22;62604;49.432;8.680;2023-01-29T07:00:52;0.10;91.10
10231;DHT22;62604;49.432;8.680;2023-01-29T07:03:19;0.00;91.30
10231;DHT22;62604;49.432;8.680;2023-01-29T07:05:50;0.00;91.60
10231;DHT22;62604;49.432;8.680;2023-01-29T07:08:17;0.00;91.40
10231;DHT22;62604;49.432;8.680;2023-01-29T07:10:47;0.00;92.60
10231;DHT22;62604;49.432;8.680;2023-01-29T07:13:14;0.00;92.20
10231;DHT22;62604;49.432;8.680;2023-01-29T07:15:41;0.00;92.50
10231;DHT22;62604;49.432;8.680;2023-01-29T07:18:10;0.00;92.90
10231;DHT22;62604;49.432;8.680;2023-01-29T07:20:38;0.10;92.80
10231;DHT22;62604;49.432;8.680;2023-01-29T07:23:06;0.00;93.00
10231;DHT22;62604;49.432;8.680;2023-01-29T07:25:34;0.10;93.50
10231;DHT22;62604;49.432;8.680;2023-01-29T07:28:02;0.10;93.30
10231;DHT22;62604;49.432;8.680;2023-01-29T07:30:29;0.10;93.10
10231;DHT22;62604;49.432;8.680;2023-01-29T07:33:00;0.10;93.30
10231;DHT22;62604;49.432;8.680;2023-01-29T07:35:30;0.20;93.10
10231;DHT22;62604;49.432;8.680;2023-01-29T07:37:57;0.20;92.70
10231;DHT22;62604;49.432;8.680;2023-01-29T07:40:24;0.20;92.90
10231;DHT22;62604;49.432;8.680;2023-01-29T07:42:56;0.20;92.70
10231;DHT22;62604;49.432;8.680;2023-01-29T07:45:24;0.20;92.70
10231;DHT22;62604;49.432;8.680;2023-01-29T07:47:51;0.20;92.50
10231;DHT22;62604;49.432;8.680;2023-01-29T07:50:19;0.20;92.90
10231;DHT22;62604;49.432;8.680;2023-01-29T07:52:47;0.20;92.30
10231;DHT22;62604;49.432;8.680;2023-01-29T07:55:14;0.20;92.40
10231;DHT22;62604;49.432;8.680;2023-01-29T07:57:42;0.20;91.10
10231;DHT22;62604;49.432;8.680;2023-01-29T08:00:10;0.30;91.00
10231;DHT22;62604;49.432;8.680;2023-01-29T08:02:38;0.30;89.90
10231;DHT22;62604;49.432;8.680;2023-01-29T08:05:05;0.20;90.20
10231;DHT22;62604;49.432;8.680;2023-01-29T08:07:32;0.20;91.50
10231;DHT22;62604;49.432;8.680;2023-01-29T08:10:01;0.20;92.10
10231;DHT22;62604;49.432;8.680;2023-01-29T08:12:28;0.20;92.90
10231;DHT22;62604;49.432;8.680;2023-01-29T08:14:54;0.30;93.20
10231;DHT22;62604;49.432;8.680;2023-01-29T08:17:21;0.40;92.90
10231;DHT22;62604;49.432;8.680;2023-01-29T08:19:48;0.40;92.50
10231;DHT22;62604;49.432;8.680;2023-01-29T08:22:16;0.50;92.70
10231;DHT22;62604;49.432;8.680;2023-01-29T08:24:43;0.60;92.70
10231;DHT22;62604;49.432;8.680;2023-01-29T08:27:11;0.70;92.60
10231;DHT22;62604;49.432;8.680;2023-01-29T08:29:38;0.80;92.10
10231;DHT22;62604;49.432;8.680;2023-01-29T08:32:08;0.80;91.60
10231;DHT22;62604;49.432;8.680;2023-01-29T08:34:36;0.90;91.20
10231;DHT22;62604;49.432;8.680;2023-01-29T08:37:02;1.00;91.10
10231;DHT22;62604;49.432;8.680;2023-01-29T08:39:29;1.10;90.80
10231;DHT22;62604;49.432;8.680;2023-01-29T08:41:59;1.30;90.70
10231;DHT22;62604;49.432;8.680;2023-01-29T08:44:27;1.40;90.40
10231;DHT22;62604;49.432;8.680;2023-01-29T08:46:54;1.50;89.80
10231;DHT22;62604;49.432;8.680;2023-01-29T08:49:21;1.60;87.00
10231;DHT22;62604;49.432;8.680;2023-01-29T08:51:48;1.70;87.00
10231;DHT22;62604;49.432;8.680;2023-01-29T08:54:16;1.80;86.50
10231;DHT22;62604;49.432;8.680;2023-01-29T08:56:42;1.90;85.80
10231;DHT22;62604;49.432;8.680;2023-01-29T08:59:10;2.00;85.10
10231;DHT22;62604;49.432;8.680;2023-01-29T09:01:38;2.10;84.40
10231;DHT22;62604;49.432;8.680;2023-01-29T09:04:05;2.10;83.10
10231;DHT22;62604;49.432;8.680;2023-01-29T09:06:32;2.20;83.10
10231;DHT22;62604;49.432;8.680;2023-01-29T09:08:59;2.10;82.70
10231;DHT22;62604;49.432;8.680;2023-01-29T09:11:26;2.10;82.50
10231;DHT22;62604;49.432;8.680;2023-01-29T09:13:53;2.10;81.60
10231;DHT22;62604;49.432;8.680;2023-01-29T09:16:20;1.80;80.20
10231;DHT22;62604;49.432;8.680;2023-01-29T09:18:48;1.80;81.70
10231;DHT22;62604;49.432;8.680;2023-01-29T09:21:15;1.80;81.90
10231;DHT22;62604;49.432;8.680;2023-01-29T09:23:42;2.00;81.90
10231;DHT22;62604;49.432;8.680;2023-01-29T09:26:09;2.40;81.30
10231;DHT22;62604;49.432;8.680;2023-01-29T09:28:36;2.60;79.30
10231;DHT22;62604;49.432;8.680;2023-01-29T09:31:03;2.80;75.90
10231;DHT22;62604;49.432;8.680;2023-01-29T09:33:30;2.90;72.30
10231;DHT22;62604;49.432;8.680;2023-01-29T09:35:58;2.80;72.20
10231;DHT22;62604;49.432;8.680;2023-01-29T09:38:25;2.70;71.80
10231;DHT22;62604;49.432;8.680;2023-01-29T09:40:57;2.90;72.60
10231;DHT22;62604;49.432;8.680;2023-01-29T09:43:39;3.20;72.10
10231;DHT22;62604;49.432;8.680;2023-01-29T09:46:16;3.40;69.30
10231;DHT22;62604;49.432;8.680;2023-01-29T09:48:45;3.40;68.90
10231;DHT22;62604;49.432;8.680;2023-01-29T09:51:20;3.50;68.00
10231;DHT22;62604;49.432;8.680;2023-01-29T09:53:53;3.70;67.60
10231;DHT22;62604;49.432;8.680;2023-01-29T09:56:24;3.60;66.10
10231;DHT22;62604;49.432;8.680;2023-01-29T09:58:56;3.80;65.80
10231;DHT22;62604;49.432;8.680;2023-01-29T10:01:31;3.60;65.60
10231;DHT22;62604;49.432;8.680;2023-01-29T10:04:30;3.50;65.50
10231;DHT22;62604;49.432;8.680;2023-01-29T10:07:16;3.40;65.80
10231;DHT22;62604;49.432;8.680;2023-01-29T10:13:01;3.20;66.10
10231;DHT22;62604;49.432;8.680;2023-01-29T10:15:39;3.20;67.20
10231;DHT22;62604;49.432;8.680;2023-01-29T10:18:30;3.20;67.20
10231;DHT22;62604;49.432;8.680;2023-01-29T10:21:05;3.20;66.40
10231;DHT22;62604;49.432;8.680;2023-01-29T10:23:37;3.10;67.40
10231;DHT22;62604;49.432;8.680;2023-01-29T10:26:09;3.10;67.80
10231;DHT22;62604;49.432;8.680;2023-01-29T10:28:40;3.10;68.40
10231;DHT22;62604;49.432;8.680;2023-01-29T10:31:14;3.20;68.10
10231;DHT22;62604;49.432;8.680;2023-01-29T10:33:48;3.20;67.70
10231;DHT22;62604;49.432;8.680;2023-01-29T10:36:21;3.10;67.60
10231;DHT22;62604;49.432;8.680;2023-01-29T10:38:50;3.00;67.10
10231;DHT22;62604;49.432;8.680;2023-01-29T10:41:28;3.10;67.00
10231;DHT22;62604;49.432;8.680;2023-01-29T10:44:07;3.10;66.60
10231;DHT22;62604;49.432;8.680;2023-01-29T10:46:50;3.10;66.80
10231;DHT22;62604;49.432;8.680;2023-01-29T10:49:30;3.10;66.50
10231;DHT22;62604;49.432;8.680;2023-01-29T10:52:15;3.30;67.50
10231;DHT22;62604;49.432;8.680;2023-01-29T10:54:57;3.40;66.60
10231;DHT22;62604;49.432;8.680;2023-01-29T10:57:39;3.40;66.10
10231;DHT22;62604;49.432;8.680;2023-01-29T11:00:09;3.50;65.80
10231;DHT22;62604;49.432;8.680;2023-01-29T11:02:43;3.60;65.40
10231;DHT22;62604;49.432;8.680;2023-01-29T11:05:19;3.60;65.80
10231;DHT22;62604;49.432;8.680;2023-01-29T11:07:56;3.70;65.70
10231;DHT22;62604;49.432;8.680;2023-01-29T11:10:30;3.70;65.20
10231;DHT22;62604;49.432;8.680;2023-01-29T11:12:58;3.90;65.10
10231;DHT22;62604;49.432;8.680;2023-01-29T11:15:28;4.10;65.50
10231;DHT22;62604;49.432;8.680;2023-01-29T11:18:08;4.20;65.20
10231;DHT22;62604;49.432;8.680;2023-01-29T11:20:39;4.40;64.00
10231;DHT22;62604;49.432;8.680;2023-01-29T11:23:24;4.40;62.90
10231;DHT22;62604;49.432;8.680;2023-01-29T11:25:54;4.30;61.90
10231;DHT22;62604;49.432;8.680;2023-01-29T11:28:36;4.30;62.20
10231;DHT22;62604;49.432;8.680;2023-01-29T11:31:04;4.50;61.10
10231;DHT22;62604;49.432;8.680;2023-01-29T11:33:40;4.50;60.40
10231;DHT22;62604;49.432;8.680;2023-01-29T11:36:20;4.70;61.30
10231;DHT22;62604;49.432;8.680;2023-01-29T11:39:09;4.80;60.40
10231;DHT22;62604;49.432;8.680;2023-01-29T11:41:44;4.80;60.00
10231;DHT22;62604;49.432;8.680;2023-01-29T11:44:21;4.40;59.60
10231;DHT22;62604;49.432;8.680;2023-01-29T11:46:52;4.60;60.00
10231;DHT22;62604;49.432;8.680;2023-01-29T11:49:28;4.70;59.70
10231;DHT22;62604;49.432;8.680;2023-01-29T11:52:00;4.70;59.90
10231;DHT22;62604;49.432;8.680;2023-01-29T11:54:31;4.80;59.80
10231;DHT22;62604;49.432;8.680;2023-01-29T11:57:02;4.90;58.80
10231;DHT22;62604;49.432;8.680;2023-01-29T11:59:38;5.10;58.20
10231;DHT22;62604;49.432;8.680;2023-01-29T12:02:21;5.10;58.10
10231;DHT22;62604;49.432;8.680;2023-01-29T12:04:49;5.20;57.90
10231;DHT22;62604;49.432;8.680;2023-01-29T12:07:17;5.10;57.50
10231;DHT22;62604;49.432;8.680;2023-01-29T12:09:49;5.20;57.50
10231;DHT22;62604;49.432;8.680;2023-01-29T12:12:28;5.10;57.20
10231;DHT22;62604;49.432;8.680;2023-01-29T12:15:03;5.10;57.10
10231;DHT22;62604;49.432;8.680;2023-01-29T12:17:33;4.80;57.10
10231;DHT22;62604;49.432;8.680;2023-01-29T12:20:08;4.80;57.40
10231;DHT22;62604;49.432;8.680;2023-01-29T12:22:41;5.00;57.80
10231;DHT22;62604;49.432;8.680;2023-01-29T12:25:20;4.90;57.10
10231;DHT22;62604;49.432;8.680;2023-01-29T12:27:54;4.90;58.10
10231;DHT22;62604;49.432;8.680;2023-01-29T12:30:28;4.80;57.30
10231;DHT22;62604;49.432;8.680;2023-01-29T12:33:02;4.80;57.80
10231;DHT22;62604;49.432;8.680;2023-01-29T12:35:34;4.80;57.50
10231;DHT22;62604;49.432;8.680;2023-01-29T12:38:03;4.90;57.70
10231;DHT22;62604;49.432;8.680;2023-01-29T12:40:40;4.80;57.80
10231;DHT22;62604;49.432;8.680;2023-01-29T12:43:15;4.80;56.90
10231;DHT22;62604;49.432;8.680;2023-01-29T12:45:43;4.80;57.70
10231;DHT22;62604;49.432;8.680;2023-01-29T12:48:19;4.70;57.80
10231;DHT22;62604;49.432;8.680;2023-01-29T12:50:48;5.00;57.20
10231;DHT22;62604;49.432;8.680;2023-01-29T12:53:24;4.80;56.90
10231;DHT22;62604;49.432;8.680;2023-01-29T12:55:54;4.90;57.20
10231;DHT22;62604;49.432;8.680;2023-01-29T12:58:28;4.70;57.00
10231;DHT22;62604;49.432;8.680;2023-01-29T13:01:02;4.60;57.60
10231;DHT22;62604;49.432;8.680;2023-01-29T13:03:36;4.60;57.80
10231;DHT22;62604;49.432;8.680;2023-01-29T13:06:09;4.80;58.20
10231;DHT22;62604;49.432;8.680;2023-01-29T13:08:41;5.00;58.00
10231;DHT22;62604;49.432;8.680;2023-01-29T13:11:14;5.10;56.80
10231;DHT22;62604;49.432;8.680;2023-01-29T13:13:50;5.20;56.50
10231;DHT22;62604;49.432;8.680;2023-01-29T13:16:22;5.20;56.70
10231;DHT22;62604;49.432;8.680;2023-01-29T13:18:54;4.90;57.00
10231;DHT22;62604;49.432;8.680;2023-01-29T13:21:25;4.60;57.30
10231;DHT22;62604;49.432;8.680;2023-01-29T13:23:55;4.70;58.40
10231;DHT22;62604;49.432;8.680;2023-01-29T13:26:22;4.60;58.10
10231;DHT22;62604;49.432;8.680;2023-01-29T13:28:52;4.50;58.60
10231;DHT22;62604;49.432;8.680;2023-01-29T13:31:27;4.40;58.90
10231;DHT22;62604;49.432;8.680;2023-01-29T13:34:03;4.10;60.00
10231;DHT22;62604;49.432;8.680;2023-01-29T13:36:32;4.00;60.90
10231;DHT22;62604;49.432;8.680;2023-01-29T13:39:01;4.00;61.60
10231;DHT22;62604;49.432;8.680;2023-01-29T13:41:37;4.00;61.80
10231;DHT22;62604;49.432;8.680;2023-01-29T13:44:16;3.80;61.80
10231;DHT22;62604;49.432;8.680;2023-01-29T13:46:48;3.90;62.30
10231;DHT22;62604;49.432;8.680;2023-01-29T13:49:24;4.00;61.60
10231;DHT22;62604;49.432;8.680;2023-01-29T13:51:53;4.20;61.50
10231;DHT22;62604;49.432;8.680;2023-01-29T13:54:23;4.30;61.70
10231;DHT22;62604;49.432;8.680;2023-01-29T13:56:58;4.40;61.30
10231;DHT22;62604;49.432;8.680;2023-01-29T14:02:28;4.30;59.80
10231;DHT22;62604;49.432;8.680;2023-01-29T14:05:35;3.90;61.10
10231;DHT22;62604;49.432;8.680;2023-01-29T14:08:05;3.70;62.40
10231;DHT22;62604;49.432;8.680;2023-01-29T14:10:33;3.70;62.20
10231;DHT22;62604;49.432;8.680;2023-01-29T14:13:25;3.70;62.60
10231;DHT22;62604;49.432;8.680;2023-01-29T14:18:56;3.60;62.50
10231;DHT22;62604;49.432;8.680;2023-01-29T14:21:27;3.50;62.60
10231;DHT22;62604;49.432;8.680;2023-01-29T14:23:58;3.30;62.80
10231;DHT22;62604;49.432;8.680;2023-01-29T14:26:28;3.20;63.40
10231;DHT22;62604;49.432;8.680;2023-01-29T14:29:05;3.00;64.30
10231;DHT22;62604;49.432;8.680;2023-01-29T14:31:40;2.80;64.90
10231;DHT22;62604;49.432;8.680;2023-01-29T14:34:16;2.70;66.20
10231;DHT22;62604;49.432;8.680;2023-01-29T14:36:44;2.70;66.20
10231;DHT22;62604;49.432;8.680;2023-01-29T14:39:33;2.80;66.70
10231;DHT22;62604;49.432;8.680;2023-01-29T14:42:03;2.70;67.00
10231;DHT22;62604;49.432;8.680;2023-01-29T14:44:59;2.80;67.80
10231;DHT22;62604;49.432;8.680;2023-01-29T14:48:00;2.90;68.50
10231;DHT22;62604;49.432;8.680;2023-01-29T14:50:49;2.90;69.10
10231;DHT22;62604;49.432;8.680;2023-01-29T14:53:23;2.80;69.70
10231;DHT22;62604;49.432;8.680;2023-01-29T14:55:55;2.80;69.40
10231;DHT22;62604;49.432;8.680;2023-01-29T14:58:30;2.60;69.10
10231;DHT22;62604;49.432;8.680;2023-01-29T15:01:01;2.50;69.30
10231;DHT22;62604;49.432;8.680;2023-01-29T15:03:36;2.50;69.70
10231;DHT22;62604;49.432;8.680;2023-01-29T15:06:09;2.60;69.70
10231;DHT22;62604;49.432;8.680;2023-01-29T15:08:42;2.50;69.90
10231;DHT22;62604;49.432;8.680;2023-01-29T15:11:14;2.40;69.90
10231;DHT22;62604;49.432;8.680;2023-01-29T15:19:54;2.20;70.70
10231;DHT22;62604;49.432;8.680;2023-01-29T15:22:24;2.20;71.90
10231;DHT22;62604;49.432;8.680;2023-01-29T15:25:05;2.10;71.90
10231;DHT22;62604;49.432;8.680;2023-01-29T15:27:33;2.10;72.20
10231;DHT22;62604;49.432;8.680;2023-01-29T15:30:03;2.10;72.60
10231;DHT22;62604;49.432;8.680;2023-01-29T15:32:44;2.00;73.20
10231;DHT22;62604;49.432;8.680;2023-01-29T15:35:26;2.00;73.10
10231;DHT22;62604;49.432;8.680;2023-01-29T15:38:02;2.00;73.50
10231;DHT22;62604;49.432;8.680;2023-01-29T15:40:31;1.90;73.50
10231;DHT22;62604;49.432;8.680;2023-01-29T15:42:58;1.90;74.30
10231;DHT22;62604;49.432;8.680;2023-01-29T15:45:27;1.90;74.70
10231;DHT22;62604;49.432;8.680;2023-01-29T15:47:59;1.90;75.00
10231;DHT22;62604;49.432;8.680;2023-01-29T15:50:27;1.90;75.20
10231;DHT22;62604;49.432;8.680;2023-01-29T15:52:59;1.80;75.60
10231;DHT22;62604;49.432;8.680;2023-01-29T15:55:29;1.80;75.70
10231;DHT22;62604;49.432;8.680;2023-01-29T15:57:58;1.80;75.60
10231;DHT22;62604;49.432;8.680;2023-01-29T16:00:27;1.70;76.20
10231;DHT22;62604;49.432;8.680;2023-01-29T16:02:55;1.60;76.40
10231;DHT22;62604;49.432;8.680;2023-01-29T16:05:26;1.60;77.00
10231;DHT22;62604;49.432;8.680;2023-01-29T16:07:54;1.50;77.90
10231;DHT22;62604;49.432;8.680;2023-01-29T16:10:25;1.40;77.70
10231;DHT22;62604;49.432;8.680;2023-01-29T16:12:54;1.40;77.60
10231;DHT22;62604;49.432;8.680;2023-01-29T16:15:27;1.40;77.40
10231;DHT22;62604;49.432;8.680;2023-01-29T16:17:57;1.40;78.20
10231;DHT22;62604;49.432;8.680;2023-01-29T16:20:42;1.40;78.20
10231;DHT22;62604;49.432;8.680;2023-01-29T16:23:16;1.40;78.40
10231;DHT22;62604;49.432;8.680;2023-01-29T16:25:45;1.40;78.40
10231;DHT22;62604;49.432;8.680;2023-01-29T16:28:13;1.30;78.90
10231;DHT22;62604;49.432;8.680;2023-01-29T16:30:40;1.30;79.80